sensor_id;sensor_type;location;lat;lon;timestamp;temperature;humidity
19164;DHT22;9714;51.208;4.242;2022-09-12T00:02:06;17.80;99.90
19164;DHT22;9714;51.208;4.242;2022-09-12T00:04:34;17.80;99.90
19164;DHT22;9714;51.208;4.242;2022-09-12T00:07:01;17.90;99.90
19164;DHT22;9714;51.208;4.242;2022-09-12T00:09:28;17.80;99.90
19164;DHT22;9714;51.208;4.242;2022-09-12T00:11:55;17.80;99.90
19164;DHT22;9714;51.208;4.242;2022-09-12T00:14:22;17.80;99.90
19164;DHT22;9714;51.208;4.242;2022-09-12T00:16:49;17.90;99.90
19164;DHT22;9714;51.208;4.242;2022-09-12T00:19:18;17.80;99.90
19164;DHT22;9714;51.208;4.242;2022-09-12T00:21:46;17.80;99.90
19164;DHT22;9714;51.208;4.242;2022-09-12T00:24:13;17.70;99.90
19164;DHT22;9714;51.208;4.242;2022-09-12T00:26:40;17.70;99.90
19164;DHT22;9714;51.208;4.242;2022-09-12T00:29:08;17.70;99.90
19164;DHT22;9714;51.208;4.242;2022-09-12T00:31:35;17.60;99.90
19164;DHT22;9714;51.208;4.242;2022-09-12T00:34:02;17.60;99.90
19164;DHT22;9714;51.208;4.242;2022-09-12T00:36:31;17.50;99.90
19164;DHT22;9714;51.208;4.242;2022-09-12T00:38:58;17.50;99.90
19164;DHT22;9714;51.208;4.242;2022-09-12T00:41:28;17.50;99.90
19164;DHT22;9714;51.208;4.242;2022-09-12T00:43:57;17.60;99.90
19164;DHT22;9714;51.208;4.242;2022-09-12T00:46:33;17.50;99.90
19164;DHT22;9714;51.208;4.242;2022-09-12T00:49:03;17.40;99.90
19164;DHT22;9714;51.208;4.242;2022-09-12T00:51:34;17.20;99.90
19164;DHT22;9714;51.208;4.242;2022-09-12T00:54:06;17.20;99.90
19164;DHT22;9714;51.208;4.242;2022-09-12T00:56:37;17.30;99.90
19164;DHT22;9714;51.208;4.242;2022-09-12T00:59:10;17.20;99.90
19164;DHT22;9714;51.208;4.242;2022-09-12T01:01:39;17.20;99.90
19164;DHT22;9714;51.208;4.242;2022-09-12T01:04:08;17.10;99.90
19164;DHT22;9714;51.208;4.242;2022-09-12T01:06:40;17.10;99.90
19164;DHT22;9714;51.208;4.242;2022-09-12T01:09:08;17.10;99.90
19164;DHT22;9714;51.208;4.242;2022-09-12T01:11:39;17.20;99.90
19164;DHT22;9714;51.208;4.242;2022-09-12T01:14:08;17.00;99.90
19164;DHT22;9714;51.208;4.242;2022-09-12T01:16:35;17.00;99.90
19164;DHT22;9714;51.208;4.242;2022-09-12T01:19:23;17.00;99.90
19164;DHT22;9714;51.208;4.242;2022-09-12T01:22:04;17.10;99.90
19164;DHT22;9714;51.208;4.242;2022-09-12T01:24:50;17.00;99.90
19164;DHT22;9714;51.208;4.242;2022-09-12T01:30:40;17.00;99.90
19164;DHT22;9714;51.208;4.242;2022-09-12T01:33:37;17.10;99.90
19164;DHT22;9714;51.208;4.242;2022-09-12T01:36:30;17.10;99.90
19164;DHT22;9714;51.208;4.242;2022-09-12T01:39:01;17.00;99.90
19164;DHT22;9714;51.208;4.242;2022-09-12T01:41:37;16.90;99.90
19164;DHT22;9714;51.208;4.242;2022-09-12T01:44:13;16.90;99.90
19164;DHT22;9714;51.208;4.242;2022-09-12T01:46:45;17.00;99.90
19164;DHT22;9714;51.208;4.242;2022-09-12T01:49:18;16.90;99.90
19164;DHT22;9714;51.208;4.242;2022-09-12T01:51:54;17.00;99.90
19164;DHT22;9714;51.208;4.242;2022-09-12T01:54:30;16.90;99.90
19164;DHT22;9714;51.208;4.242;2022-09-12T01:57:05;16.80;99.90
19164;DHT22;9714;51.208;4.242;2022-09-12T01:59:36;16.70;99.90
19164;DHT22;9714;51.208;4.242;2022-09-12T02:02:07;16.80;99.90
19164;DHT22;9714;51.208;4.242;2022-09-12T02:04:40;16.60;99.90
19164;DHT22;9714;51.208;4.242;2022-09-12T02:07:12;16.60;99.90
19164;DHT22;9714;51.208;4.242;2022-09-12T02:09:43;16.60;99.90
19164;DHT22;9714;51.208;4.242;2022-09-12T02:12:14;16.50;99.90
19164;DHT22;9714;51.208;4.242;2022-09-12T02:14:47;16.50;99.90
19164;DHT22;9714;51.208;4.242;2022-09-12T02:17:19;16.50;99.90
19164;DHT22;9714;51.208;4.242;2022-09-12T02:19:51;16.40;99.90
19164;DHT22;9714;51.208;4.242;2022-09-12T02:22:23;16.20;99.90
19164;DHT22;9714;51.208;4.242;2022-09-12T02:24:54;16.20;99.90
19164;DHT22;9714;51.208;4.242;2022-09-12T02:27:24;16.20;99.90
19164;DHT22;9714;51.208;4.242;2022-09-12T02:29:53;16.20;99.90
19164;DHT22;9714;51.208;4.242;2022-09-12T02:32:29;16.20;99.90
19164;DHT22;9714;51.208;4.242;2022-09-12T02:35:02;16.20;99.90
19164;DHT22;9714;51.208;4.242;2022-09-12T02:37:42;16.30;99.90
19164;DHT22;9714;51.208;4.242;2022-09-12T02:40:12;16.30;99.90
19164;DHT22;9714;51.208;4.242;2022-09-12T02:42:39;16.30;99.90
19164;DHT22;9714;51.208;4.242;2022-09-12T02:45:07;16.30;99.90
19164;DHT22;9714;51.208;4.242;2022-09-12T02:47:40;16.30;99.90
19164;DHT22;9714;51.208;4.242;2022-09-12T02:50:09;16.20;99.90
19164;DHT22;9714;51.208;4.242;2022-09-12T02:52:36;16.20;99.90
19164;DHT22;9714;51.208;4.242;2022-09-12T02:55:05;16.20;99.90
19164;DHT22;9714;51.208;4.242;2022-09-12T02:57:32;16.10;99.90
19164;DHT22;9714;51.208;4.242;2022-09-12T03:00:00;16.20;99.90
19164;DHT22;9714;51.208;4.242;2022-09-12T03:02:34;16.20;99.90
19164;DHT22;9714;51.208;4.242;2022-09-12T03:05:18;16.20;99.90
19164;DHT22;9714;51.208;4.242;2022-09-12T03:11:08;16.20;99.90
19164;DHT22;9714;51.208;4.242;2022-09-12T03:13:49;16.20;99.90
19164;DHT22;9714;51.208;4.242;2022-09-12T03:16:24;16.20;99.90
19164;DHT22;9714;51.208;4.242;2022-09-12T03:18:59;16.20;99.90
19164;DHT22;9714;51.208;4.242;2022-09-12T03:21:32;16.20;99.90
19164;DHT22;9714;51.208;4.242;2022-09-12T03:24:11;16.00;99.90
19164;DHT22;9714;51.208;4.242;2022-09-12T03:26:43;15.80;99.90
19164;DHT22;9714;51.208;4.242;2022-09-12T03:29:13;15.90;99.90
19164;DHT22;9714;51.208;4.242;2022-09-12T03:31:52;15.90;99.90
19164;DHT22;9714;51.208;4.242;2022-09-12T03:34:20;15.90;99.90
19164;DHT22;9714;51.208;4.242;2022-09-12T03:36:49;15.90;99.90
19164;DHT22;9714;51.208;4.242;2022-09-12T03:39:16;15.90;99.90
19164;DHT22;9714;51.208;4.242;2022-09-12T03:41:44;15.90;99.90
19164;DHT22;9714;51.208;4.242;2022-09-12T03:44:10;15.90;99.90
19164;DHT22;9714;51.208;4.242;2022-09-12T03:46:37;15.80;99.90
19164;DHT22;9714;51.208;4.242;2022-09-12T03:49:04;15.80;99.90
19164;DHT22;9714;51.208;4.242;2022-09-12T03:51:31;16.00;99.90
19164;DHT22;9714;51.208;4.242;2022-09-12T03:54:00;16.00;99.90
19164;DHT22;9714;51.208;4.242;2022-09-12T03:56:27;15.90;99.90
19164;DHT22;9714;51.208;4.242;2022-09-12T03:58:54;15.90;99.90
19164;DHT22;9714;51.208;4.242;2022-09-12T04:01:20;15.90;99.90
19164;DHT22;9714;51.208;4.242;2022-09-12T04:03:50;15.90;99.90
19164;DHT22;9714;51.208;4.242;2022-09-12T04:06:19;15.90;99.90
19164;DHT22;9714;51.208;4.242;2022-09-12T04:08:47;15.90;99.90
19164;DHT22;9714;51.208;4.242;2022-09-12T04:11:17;16.00;99.90
19164;DHT22;9714;51.208;4.242;2022-09-12T04:13:45;15.90;99.90
19164;DHT22;9714;51.208;4.242;2022-09-12T04:16:13;15.90;99.90
19164;DHT22;9714;51.208;4.242;2022-09-12T04:18:40;15.80;99.90
19164;DHT22;9714;51.208;4.242;2022-09-12T04:21:09;15.70;99.90
19164;DHT22;9714;51.208;4.242;2022-09-12T04:23:37;15.70;99.90
19164;DHT22;9714;51.208;4.242;2022-09-12T04:26:06;15.80;99.90
19164;DHT22;9714;51.208;4.242;2022-09-12T04:28:37;15.90;99.90
19164;DHT22;9714;51.208;4.242;2022-09-12T04:31:06;15.90;99.90
19164;DHT22;9714;51.208;4.242;2022-09-12T04:33:34;15.70;99.90
19164;DHT22;9714;51.208;4.242;2022-09-12T04:36:07;15.60;99.90
19164;DHT22;9714;51.208;4.242;2022-09-12T04:38:35;15.60;99.90
19164;DHT22;9714;51.208;4.242;2022-09-12T04:41:10;15.60;99.90
19164;DHT22;9714;51.208;4.242;2022-09-12T04:43:38;15.70;99.90
19164;DHT22;9714;51.208;4.242;2022-09-12T04:46:06;15.60;99.90
19164;DHT22;9714;51.208;4.242;2022-09-12T04:48:34;15.60;99.90
19164;DHT22;9714;51.208;4.242;2022-09-12T04:51:08;15.60;99.90
19164;DHT22;9714;51.208;4.242;2022-09-12T04:53:37;15.60;99.90
19164;DHT22;9714;51.208;4.242;2022-09-12T04:56:06;15.60;99.90
19164;DHT22;9714;51.208;4.242;2022-09-12T04:58:34;15.60;99.90
19164;DHT22;9714;51.208;4.242;2022-09-12T05:01:07;15.60;99.90
19164;DHT22;9714;51.208;4.242;2022-09-12T05:03:34;15.60;99.90
19164;DHT22;9714;51.208;4.242;2022-09-12T05:06:27;15.80;99.90
19164;DHT22;9714;51.208;4.242;2022-09-12T05:08:56;15.80;99.90
19164;DHT22;9714;51.208;4.242;2022-09-12T05:11:25;15.70;99.90
19164;DHT22;9714;51.208;4.242;2022-09-12T05:13:52;15.80;99.90
19164;DHT22;9714;51.208;4.242;2022-09-12T05:16:22;15.80;99.90
19164;DHT22;9714;51.208;4.242;2022-09-12T05:18:49;15.70;99.90
19164;DHT22;9714;51.208;4.242;2022-09-12T05:21:18;15.60;99.90
19164;DHT22;9714;51.208;4.242;2022-09-12T05:23:45;15.60;99.90
19164;DHT22;9714;51.208;4.242;2022-09-12T05:26:15;15.60;99.90
19164;DHT22;9714;51.208;4.242;2022-09-12T05:28:42;15.60;99.90
19164;DHT22;9714;51.208;4.242;2022-09-12T05:31:11;15.60;99.90
19164;DHT22;9714;51.208;4.242;2022-09-12T05:33:41;15.60;99.90
19164;DHT22;9714;51.208;4.242;2022-09-12T05:36:11;15.60;99.90
19164;DHT22;9714;51.208;4.242;2022-09-12T05:38:38;15.50;99.90
19164;DHT22;9714;51.208;4.242;2022-09-12T05:41:07;15.40;99.90
19164;DHT22;9714;51.208;4.242;2022-09-12T05:43:35;15.40;99.90
19164;DHT22;9714;51.208;4.242;2022-09-12T05:46:04;15.30;99.90
19164;DHT22;9714;51.208;4.242;2022-09-12T05:48:33;15.30;99.90
19164;DHT22;9714;51.208;4.242;2022-09-12T05:51:04;15.30;99.90
19164;DHT22;9714;51.208;4.242;2022-09-12T05:53:34;15.30;99.90
19164;DHT22;9714;51.208;4.242;2022-09-12T05:56:06;15.40;99.90
19164;DHT22;9714;51.208;4.242;2022-09-12T05:58:37;15.30;99.90
19164;DHT22;9714;51.208;4.242;2022-09-12T06:01:07;15.30;99.90
19164;DHT22;9714;51.208;4.242;2022-09-12T06:03:35;15.30;99.90
19164;DHT22;9714;51.208;4.242;2022-09-12T06:06:06;15.40;99.90
19164;DHT22;9714;51.208;4.242;2022-09-12T06:08:34;15.30;99.90
19164;DHT22;9714;51.208;4.242;2022-09-12T06:11:05;15.30;99.90
19164;DHT22;9714;51.208;4.242;2022-09-12T06:13:33;15.30;99.90
19164;DHT22;9714;51.208;4.242;2022-09-12T06:16:02;15.40;99.90
19164;DHT22;9714;51.208;4.242;2022-09-12T06:18:30;15.40;99.90
19164;DHT22;9714;51.208;4.242;2022-09-12T06:20:57;15.50;99.90
19164;DHT22;9714;51.208;4.242;2022-09-12T06:23:28;15.50;99.90
19164;DHT22;9714;51.208;4.242;2022-09-12T06:25:57;15.70;99.90
19164;DHT22;9714;51.208;4.242;2022-09-12T06:28:24;15.80;99.90
19164;DHT22;9714;51.208;4.242;2022-09-12T06:30:51;15.90;99.90
19164;DHT22;9714;51.208;4.242;2022-09-12T06:33:18;15.90;99.90
19164;DHT22;9714;51.208;4.242;2022-09-12T06:35:45;16.10;99.90
19164;DHT22;9714;51.208;4.242;2022-09-12T06:38:12;16.10;99.90
19164;DHT22;9714;51.208;4.242;2022-09-12T06:40:42;16.40;99.90
19164;DHT22;9714;51.208;4.242;2022-09-12T06:43:11;16.60;99.90
19164;DHT22;9714;51.208;4.242;2022-09-12T06:45:39;16.70;99.90
19164;DHT22;9714;51.208;4.242;2022-09-12T06:48:06;16.70;99.90
19164;DHT22;9714;51.208;4.242;2022-09-12T06:50:33;16.90;99.90
19164;DHT22;9714;51.208;4.242;2022-09-12T06:53:00;17.20;99.90
19164;DHT22;9714;51.208;4.242;2022-09-12T06:55:27;17.50;99.90
19164;DHT22;9714;51.208;4.242;2022-09-12T06:57:55;17.70;99.90
19164;DHT22;9714;51.208;4.242;2022-09-12T07:00:22;17.90;99.90
19164;DHT22;9714;51.208;4.242;2022-09-12T07:02:53;18.20;99.90
19164;DHT22;9714;51.208;4.242;2022-09-12T07:05:21;18.50;99.90
19164;DHT22;9714;51.208;4.242;2022-09-12T07:07:48;18.50;99.90
19164;DHT22;9714;51.208;4.242;2022-09-12T07:10:15;18.50;99.90
19164;DHT22;9714;51.208;4.242;2022-09-12T07:12:41;18.90;99.90
19164;DHT22;9714;51.208;4.242;2022-09-12T07:15:11;19.20;99.90
19164;DHT22;9714;51.208;4.242;2022-09-12T07:17:38;19.10;99.90
19164;DHT22;9714;51.208;4.242;2022-09-12T07:20:06;19.30;99.90
19164;DHT22;9714;51.208;4.242;2022-09-12T07:22:33;19.50;99.90
19164;DHT22;9714;51.208;4.242;2022-09-12T07:25:00;19.60;99.90
19164;DHT22;9714;51.208;4.242;2022-09-12T07:27:27;19.80;99.90
19164;DHT22;9714;51.208;4.242;2022-09-12T07:29:54;20.30;99.90
19164;DHT22;9714;51.208;4.242;2022-09-12T07:32:23;20.60;99.90
19164;DHT22;9714;51.208;4.242;2022-09-12T07:34:49;20.60;99.90
19164;DHT22;9714;51.208;4.242;2022-09-12T07:37:16;20.90;99.90
19164;DHT22;9714;51.208;4.242;2022-09-12T07:39:43;21.40;99.90
19164;DHT22;9714;51.208;4.242;2022-09-12T07:42:11;21.40;99.90
19164;DHT22;9714;51.208;4.242;2022-09-12T07:44:38;21.30;99.90
19164;DHT22;9714;51.208;4.242;2022-09-12T07:47:05;22.10;99.90
19164;DHT22;9714;51.208;4.242;2022-09-12T07:49:34;22.50;99.90
19164;DHT22;9714;51.208;4.242;2022-09-12T07:52:02;22.80;99.90
19164;DHT22;9714;51.208;4.242;2022-09-12T07:54:30;23.30;99.90
19164;DHT22;9714;51.208;4.242;2022-09-12T07:56:58;23.40;99.90
19164;DHT22;9714;51.208;4.242;2022-09-12T07:59:25;23.60;99.90
19164;DHT22;9714;51.208;4.242;2022-09-12T08:01:52;24.70;99.90
19164;DHT22;9714;51.208;4.242;2022-09-12T08:04:19;24.90;99.90
19164;DHT22;9714;51.208;4.242;2022-09-12T08:06:48;24.90;99.90
19164;DHT22;9714;51.208;4.242;2022-09-12T08:09:16;25.00;99.90
19164;DHT22;9714;51.208;4.242;2022-09-12T08:11:44;25.50;99.90
19164;DHT22;9714;51.208;4.242;2022-09-12T08:14:12;25.50;99.90
19164;DHT22;9714;51.208;4.242;2022-09-12T08:16:39;25.70;99.90
19164;DHT22;9714;51.208;4.242;2022-09-12T08:19:06;26.10;99.90
19164;DHT22;9714;51.208;4.242;2022-09-12T08:21:34;26.40;99.90
19164;DHT22;9714;51.208;4.242;2022-09-12T08:24:04;26.40;99.90
19164;DHT22;9714;51.208;4.242;2022-09-12T08:26:33;26.40;99.90
19164;DHT22;9714;51.208;4.242;2022-09-12T08:29:01;27.20;99.90
19164;DHT22;9714;51.208;4.242;2022-09-12T08:31:28;27.00;99.90
19164;DHT22;9714;51.208;4.242;2022-09-12T08:34:01;27.40;99.90
19164;DHT22;9714;51.208;4.242;2022-09-12T08:36:30;27.40;99.90
19164;DHT22;9714;51.208;4.242;2022-09-12T08:38:59;27.00;99.90
19164;DHT22;9714;51.208;4.242;2022-09-12T08:41:30;26.80;99.90
19164;DHT22;9714;51.208;4.242;2022-09-12T08:44:18;26.90;99.90
19164;DHT22;9714;51.208;4.242;2022-09-12T08:47:02;26.90;99.90
19164;DHT22;9714;51.208;4.242;2022-09-12T08:49:39;27.20;99.90
19164;DHT22;9714;51.208;4.242;2022-09-12T08:52:12;27.20;99.90
19164;DHT22;9714;51.208;4.242;2022-09-12T08:54:42;28.10;99.90
19164;DHT22;9714;51.208;4.242;2022-09-12T08:57:13;28.50;99.90
19164;DHT22;9714;51.208;4.242;2022-09-12T08:59:42;28.70;99.90
19164;DHT22;9714;51.208;4.242;2022-09-12T09:05:14;30.40;96.20
19164;DHT22;9714;51.208;4.242;2022-09-12T09:10:49;29.60;94.10
19164;DHT22;9714;51.208;4.242;2022-09-12T09:13:32;30.60;92.80
19164;DHT22;9714;51.208;4.242;2022-09-12T09:16:25;31.30;91.00
19164;DHT22;9714;51.208;4.242;2022-09-12T09:18:57;31.40;88.90
19164;DHT22;9714;51.208;4.242;2022-09-12T09:21:30;31.10;89.30
19164;DHT22;9714;51.208;4.242;2022-09-12T09:24:02;31.50;88.40
19164;DHT22;9714;51.208;4.242;2022-09-12T09:26:38;31.40;86.20
19164;DHT22;9714;51.208;4.242;2022-09-12T09:29:15;31.00;88.00
19164;DHT22;9714;51.208;4.242;2022-09-12T09:31:44;32.00;85.60
19164;DHT22;9714;51.208;4.242;2022-09-12T09:34:17;30.90;85.30
19164;DHT22;9714;51.208;4.242;2022-09-12T09:36:49;30.20;89.00
19164;DHT22;9714;51.208;4.242;2022-09-12T09:39:29;29.00;90.80
19164;DHT22;9714;51.208;4.242;2022-09-12T09:42:18;28.40;91.60
19164;DHT22;9714;51.208;4.242;2022-09-12T09:44:52;28.50;92.60
19164;DHT22;9714;51.208;4.242;2022-09-12T09:47:21;29.20;91.80
19164;DHT22;9714;51.208;4.242;2022-09-12T09:49:48;30.50;90.90
19164;DHT22;9714;51.208;4.242;2022-09-12T09:52:18;31.40;88.20
19164;DHT22;9714;51.208;4.242;2022-09-12T09:54:50;31.00;87.10
19164;DHT22;9714;51.208;4.242;2022-09-12T09:57:42;30.40;86.10
19164;DHT22;9714;51.208;4.242;2022-09-12T10:00:30;30.90;86.60
19164;DHT22;9714;51.208;4.242;2022-09-12T10:03:04;31.90;84.50
19164;DHT22;9714;51.208;4.242;2022-09-12T10:05:34;33.20;82.00
19164;DHT22;9714;51.208;4.242;2022-09-12T10:08:03;33.70;76.90
19164;DHT22;9714;51.208;4.242;2022-09-12T10:10:32;32.10;78.50
19164;DHT22;9714;51.208;4.242;2022-09-12T10:13:07;31.50;79.30
19164;DHT22;9714;51.208;4.242;2022-09-12T10:15:37;30.80;82.30
19164;DHT22;9714;51.208;4.242;2022-09-12T10:18:04;30.90;81.60
19164;DHT22;9714;51.208;4.242;2022-09-12T10:20:34;31.70;80.50
19164;DHT22;9714;51.208;4.242;2022-09-12T10:23:22;32.40;79.50
19164;DHT22;9714;51.208;4.242;2022-09-12T10:25:58;33.70;75.80
19164;DHT22;9714;51.208;4.242;2022-09-12T10:28:31;32.90;74.50
19164;DHT22;9714;51.208;4.242;2022-09-12T10:31:02;31.50;77.60
19164;DHT22;9714;51.208;4.242;2022-09-12T10:33:36;31.30;77.20
19164;DHT22;9714;51.208;4.242;2022-09-12T10:36:07;31.40;76.20
19164;DHT22;9714;51.208;4.242;2022-09-12T10:38:34;31.30;78.90
19164;DHT22;9714;51.208;4.242;2022-09-12T10:41:03;33.40;75.30
19164;DHT22;9714;51.208;4.242;2022-09-12T10:43:35;33.80;74.10
19164;DHT22;9714;51.208;4.242;2022-09-12T10:46:26;34.60;70.40
19164;DHT22;9714;51.208;4.242;2022-09-12T10:51:55;35.50;67.60
19164;DHT22;9714;51.208;4.242;2022-09-12T10:54:25;36.40;66.00
19164;DHT22;9714;51.208;4.242;2022-09-12T10:57:10;35.80;64.00
19164;DHT22;9714;51.208;4.242;2022-09-12T11:02:44;36.10;62.10
19164;DHT22;9714;51.208;4.242;2022-09-12T11:05:19;36.00;62.50
19164;DHT22;9714;51.208;4.242;2022-09-12T11:07:52;35.30;62.60
19164;DHT22;9714;51.208;4.242;2022-09-12T11:10:29;35.40;64.20
19164;DHT22;9714;51.208;4.242;2022-09-12T11:13:10;36.30;61.50
19164;DHT22;9714;51.208;4.242;2022-09-12T11:18:52;34.50;64.20
19164;DHT22;9714;51.208;4.242;2022-09-12T11:21:43;35.10;63.70
19164;DHT22;9714;51.208;4.242;2022-09-12T11:24:31;35.10;62.40
19164;DHT22;9714;51.208;4.242;2022-09-12T11:27:11;35.60;62.30
19164;DHT22;9714;51.208;4.242;2022-09-12T11:29:49;35.90;62.40
19164;DHT22;9714;51.208;4.242;2022-09-12T11:35:25;36.20;59.50
19164;DHT22;9714;51.208;4.242;2022-09-12T11:38:08;36.70;58.40
19164;DHT22;9714;51.208;4.242;2022-09-12T11:40:41;35.90;59.20
19164;DHT22;9714;51.208;4.242;2022-09-12T11:43:21;35.50;60.00
19164;DHT22;9714;51.208;4.242;2022-09-12T11:45:53;36.30;58.80
19164;DHT22;9714;51.208;4.242;2022-09-12T11:48:34;36.70;59.40
19164;DHT22;9714;51.208;4.242;2022-09-12T11:51:19;37.60;57.90
19164;DHT22;9714;51.208;4.242;2022-09-12T11:56:27;34.60;58.90
19164;DHT22;9714;51.208;4.242;2022-09-12T11:58:58;34.10;61.10
19164;DHT22;9714;51.208;4.242;2022-09-12T12:01:37;33.10;62.10
19164;DHT22;9714;51.208;4.242;2022-09-12T12:04:10;33.50;62.20
19164;DHT22;9714;51.208;4.242;2022-09-12T12:06:56;35.10;61.00
19164;DHT22;9714;51.208;4.242;2022-09-12T12:09:32;36.00;59.60
19164;DHT22;9714;51.208;4.242;2022-09-12T12:12:10;36.40;58.20
19164;DHT22;9714;51.208;4.242;2022-09-12T12:14:49;37.30;58.10
19164;DHT22;9714;51.208;4.242;2022-09-12T12:17:21;37.80;57.60
19164;DHT22;9714;51.208;4.242;2022-09-12T12:19:57;37.20;55.80
19164;DHT22;9714;51.208;4.242;2022-09-12T12:22:26;35.30;58.60
19164;DHT22;9714;51.208;4.242;2022-09-12T12:25:07;34.20;58.50
19164;DHT22;9714;51.208;4.242;2022-09-12T12:27:56;34.80;59.20
19164;DHT22;9714;51.208;4.242;2022-09-12T12:30:59;35.80;58.60
19164;DHT22;9714;51.208;4.242;2022-09-12T12:33:53;36.00;57.50
19164;DHT22;9714;51.208;4.242;2022-09-12T12:36:40;35.50;58.50
19164;DHT22;9714;51.208;4.242;2022-09-12T12:46:02;36.00;57.10
19164;DHT22;9714;51.208;4.242;2022-09-12T12:48:32;37.20;56.10
19164;DHT22;9714;51.208;4.242;2022-09-12T12:51:39;37.50;56.40
19164;DHT22;9714;51.208;4.242;2022-09-12T12:54:25;37.40;55.90
19164;DHT22;9714;51.208;4.242;2022-09-12T12:57:14;37.90;56.30
19164;DHT22;9714;51.208;4.242;2022-09-12T12:59:51;37.60;54.70
19164;DHT22;9714;51.208;4.242;2022-09-12T13:02:23;36.90;55.50
19164;DHT22;9714;51.208;4.242;2022-09-12T13:04:54;36.40;57.00
19164;DHT22;9714;51.208;4.242;2022-09-12T13:07:28;36.40;56.30
19164;DHT22;9714;51.208;4.242;2022-09-12T13:09:58;35.90;56.60
19164;DHT22;9714;51.208;4.242;2022-09-12T13:12:32;36.10;56.50
19164;DHT22;9714;51.208;4.242;2022-09-12T13:15:27;35.50;57.20
19164;DHT22;9714;51.208;4.242;2022-09-12T13:18:04;36.40;55.70
19164;DHT22;9714;51.208;4.242;2022-09-12T13:20:35;35.10;57.20
19164;DHT22;9714;51.208;4.242;2022-09-12T13:23:23;34.00;58.70
19164;DHT22;9714;51.208;4.242;2022-09-12T13:25:57;35.10;57.50
19164;DHT22;9714;51.208;4.242;2022-09-12T13:28:29;35.10;57.50
19164;DHT22;9714;51.208;4.242;2022-09-12T13:31:01;35.10;57.20
19164;DHT22;9714;51.208;4.242;2022-09-12T13:33:36;35.60;56.40
19164;DHT22;9714;51.208;4.242;2022-09-12T13:36:29;34.80;57.10
19164;DHT22;9714;51.208;4.242;2022-09-12T13:39:13;34.40;58.10
19164;DHT22;9714;51.208;4.242;2022-09-12T13:44:41;35.60;57.60
19164;DHT22;9714;51.208;4.242;2022-09-12T13:47:13;36.20;57.10
19164;DHT22;9714;51.208;4.242;2022-09-12T13:49:45;35.70;56.40
19164;DHT22;9714;51.208;4.242;2022-09-12T13:52:16;33.90;57.20
19164;DHT22;9714;51.208;4.242;2022-09-12T13:54:47;34.30;59.00
19164;DHT22;9714;51.208;4.242;2022-09-12T13:57:30;34.20;57.60
19164;DHT22;9714;51.208;4.242;2022-09-12T14:00:04;35.40;57.90
19164;DHT22;9714;51.208;4.242;2022-09-12T14:02:34;37.00;55.50
19164;DHT22;9714;51.208;4.242;2022-09-12T14:05:11;37.20;55.20
19164;DHT22;9714;51.208;4.242;2022-09-12T14:07:44;37.60;54.40
19164;DHT22;9714;51.208;4.242;2022-09-12T14:10:27;38.10;54.60
19164;DHT22;9714;51.208;4.242;2022-09-12T14:12:57;38.30;53.40
19164;DHT22;9714;51.208;4.242;2022-09-12T14:15:27;37.60;54.00
19164;DHT22;9714;51.208;4.242;2022-09-12T14:17:56;36.90;54.30
19164;DHT22;9714;51.208;4.242;2022-09-12T14:20:30;36.60;54.70
19164;DHT22;9714;51.208;4.242;2022-09-12T14:23:00;35.80;55.70
19164;DHT22;9714;51.208;4.242;2022-09-12T14:25:34;35.20;54.50
19164;DHT22;9714;51.208;4.242;2022-09-12T14:28:02;34.60;57.00
19164;DHT22;9714;51.208;4.242;2022-09-12T14:30:34;35.30;55.90
19164;DHT22;9714;51.208;4.242;2022-09-12T14:33:16;36.30;55.60
19164;DHT22;9714;51.208;4.242;2022-09-12T14:35:46;36.50;53.80
19164;DHT22;9714;51.208;4.242;2022-09-12T14:38:21;36.80;54.40
19164;DHT22;9714;51.208;4.242;2022-09-12T14:40:51;36.70;55.00
19164;DHT22;9714;51.208;4.242;2022-09-12T14:43:25;36.80;54.40
19164;DHT22;9714;51.208;4.242;2022-09-12T14:45:58;35.60;54.20
19164;DHT22;9714;51.208;4.242;2022-09-12T14:48:35;35.40;55.90
19164;DHT22;9714;51.208;4.242;2022-09-12T14:51:19;35.90;55.00
19164;DHT22;9714;51.208;4.242;2022-09-12T14:53:50;36.30;54.90
19164;DHT22;9714;51.208;4.242;2022-09-12T14:56:20;36.20;54.60
19164;DHT22;9714;51.208;4.242;2022-09-12T14:58:49;36.80;54.40
19164;DHT22;9714;51.208;4.242;2022-09-12T15:01:24;37.80;53.30
19164;DHT22;9714;51.208;4.242;2022-09-12T15:03:54;38.00;53.20
19164;DHT22;9714;51.208;4.242;2022-09-12T15:06:28;38.00;53.20
19164;DHT22;9714;51.208;4.242;2022-09-12T15:08:57;38.60;52.40
19164;DHT22;9714;51.208;4.242;2022-09-12T15:11:26;37.50;52.60
19164;DHT22;9714;51.208;4.242;2022-09-12T15:13:53;37.40;52.70
19164;DHT22;9714;51.208;4.242;2022-09-12T15:16:21;37.60;52.60
19164;DHT22;9714;51.208;4.242;2022-09-12T15:18:48;37.70;53.30
19164;DHT22;9714;51.208;4.242;2022-09-12T15:21:17;37.20;53.30
19164;DHT22;9714;51.208;4.242;2022-09-12T15:23:47;37.20;53.00
19164;DHT22;9714;51.208;4.242;2022-09-12T15:26:16;36.10;53.20
19164;DHT22;9714;51.208;4.242;2022-09-12T15:28:43;35.10;54.80
19164;DHT22;9714;51.208;4.242;2022-09-12T15:31:14;34.80;55.60
19164;DHT22;9714;51.208;4.242;2022-09-12T15:33:45;35.80;55.40
19164;DHT22;9714;51.208;4.242;2022-09-12T15:36:19;36.30;53.80
19164;DHT22;9714;51.208;4.242;2022-09-12T15:38:49;35.90;53.50
19164;DHT22;9714;51.208;4.242;2022-09-12T15:41:19;34.90;54.50
19164;DHT22;9714;51.208;4.242;2022-09-12T15:43:46;35.00;55.30
19164;DHT22;9714;51.208;4.242;2022-09-12T15:46:15;35.20;55.50
19164;DHT22;9714;51.208;4.242;2022-09-12T15:48:42;35.30;54.70
19164;DHT22;9714;51.208;4.242;2022-09-12T15:51:11;34.90;55.20
19164;DHT22;9714;51.208;4.242;2022-09-12T15:53:40;35.20;56.00
19164;DHT22;9714;51.208;4.242;2022-09-12T15:56:08;35.80;54.30
19164;DHT22;9714;51.208;4.242;2022-09-12T15:58:35;34.90;55.00
19164;DHT22;9714;51.208;4.242;2022-09-12T16:01:05;34.40;55.30
19164;DHT22;9714;51.208;4.242;2022-09-12T16:03:36;34.70;55.60
19164;DHT22;9714;51.208;4.242;2022-09-12T16:06:06;34.60;55.30
19164;DHT22;9714;51.208;4.242;2022-09-12T16:08:37;34.20;55.80
19164;DHT22;9714;51.208;4.242;2022-09-12T16:11:17;32.80;57.30
19164;DHT22;9714;51.208;4.242;2022-09-12T16:13:46;32.40;58.10
19164;DHT22;9714;51.208;4.242;2022-09-12T16:16:20;31.80;58.90
19164;DHT22;9714;51.208;4.242;2022-09-12T16:18:51;31.10;60.20
19164;DHT22;9714;51.208;4.242;2022-09-12T16:21:19;31.20;61.70
19164;DHT22;9714;51.208;4.242;2022-09-12T16:23:47;31.90;61.10
19164;DHT22;9714;51.208;4.242;2022-09-12T16:26:18;32.60;60.20
19164;DHT22;9714;51.208;4.242;2022-09-12T16:28:46;33.40;59.10
19164;DHT22;9714;51.208;4.242;2022-09-12T16:31:13;33.50;58.30
19164;DHT22;9714;51.208;4.242;2022-09-12T16:33:41;33.50;58.20
19164;DHT22;9714;51.208;4.242;2022-09-12T16:36:09;33.20;58.70
19164;DHT22;9714;51.208;4.242;2022-09-12T16:38:39;32.70;59.30
19164;DHT22;9714;51.208;4.242;2022-09-12T16:41:07;32.80;59.40
19164;DHT22;9714;51.208;4.242;2022-09-12T16:43:35;33.30;58.70
19164;DHT22;9714;51.208;4.242;2022-09-12T16:46:04;32.80;58.70
19164;DHT22;9714;51.208;4.242;2022-09-12T16:48:32;32.10;59.00
19164;DHT22;9714;51.208;4.242;2022-09-12T16:51:04;31.30;60.50
19164;DHT22;9714;51.208;4.242;2022-09-12T16:53:33;30.80;61.50